createdAt,value
2019-05-15T00:04:31.935Z,98.40
2019-05-15T00:09:55.889Z,99.30
2019-05-15T00:15:19.525Z,99.40
2019-05-15T00:20:43.289Z,99.50
2019-05-15T00:26:09.306Z,99.90
2019-05-15T00:31:32.254Z,99.90
2019-05-15T00:36:58.360Z,99.90
2019-05-15T00:42:21.295Z,99.90
2019-05-15T00:47:44.967Z,99.90
2019-05-15T00:53:08.903Z,99.90
2019-05-15T00:58:32.914Z,99.90
2019-05-15T01:03:58.625Z,99.90
2019-05-15T01:09:22.000Z,99.90
2019-05-15T01:14:45.907Z,99.90
2019-05-15T01:20:09.935Z,99.90
2019-05-15T01:25:33.031Z,99.90
2019-05-15T01:30:59.044Z,99.90
2019-05-15T01:36:21.963Z,99.90
2019-05-15T01:41:49.340Z,99.90
2019-05-15T01:47:10.665Z,99.90
2019-05-15T01:52:34.203Z,99.90
2019-05-15T01:57:58.145Z,99.90
2019-05-15T02:03:22.259Z,99.90
2019-05-15T02:08:45.900Z,99.90
2019-05-15T02:14:09.659Z,99.90
2019-05-15T02:19:33.653Z,99.90
2019-05-15T02:24:59.145Z,99.90
2019-05-15T02:30:28.852Z,99.90
2019-05-15T02:35:50.251Z,99.90
2019-05-15T02:41:13.236Z,99.90
2019-05-15T02:46:39.157Z,99.90
2019-05-15T02:52:01.967Z,99.90
2019-05-15T02:57:25.146Z,99.90
2019-05-15T03:02:49.860Z,99.90
2019-05-15T03:08:13.982Z,99.90
2019-05-15T03:13:39.133Z,99.90
2019-05-15T03:19:02.223Z,99.90
2019-05-15T03:24:28.656Z,99.90
2019-05-15T03:29:50.379Z,99.90
2019-05-15T03:35:15.750Z,99.90
2019-05-15T03:40:40.109Z,99.90
2019-05-15T03:46:03.591Z,99.90
2019-05-15T03:51:28.918Z,99.90
2019-05-15T03:56:51.620Z,99.90
2019-05-15T04:02:15.275Z,99.90
2019-05-15T04:07:39.756Z,99.90
2019-05-15T04:13:04.340Z,99.90
2019-05-15T04:18:29.126Z,99.90
2019-05-15T04:23:55.153Z,99.90
2019-05-15T04:29:19.656Z,99.90
2019-05-15T04:34:42.876Z,99.90
2019-05-15T04:40:09.249Z,99.90
2019-05-15T04:45:34.967Z,99.90
2019-05-15T04:50:58.788Z,99.90
2019-05-15T04:56:21.464Z,99.90
2019-05-15T05:01:45.610Z,99.90
2019-05-15T05:07:09.393Z,99.90
2019-05-15T05:12:33.191Z,99.90
2019-05-15T05:17:58.591Z,99.90
2019-05-15T05:23:21.844Z,99.90
2019-05-15T05:28:45.497Z,99.90
2019-05-15T05:34:09.204Z,99.90
2019-05-15T05:39:32.919Z,99.90
2019-05-15T05:44:58.140Z,99.90
2019-05-15T05:50:44.078Z,99.90
2019-05-15T05:56:05.867Z,99.90
2019-05-15T06:01:28.947Z,99.90
2019-05-15T06:07:06.239Z,99.90
2019-05-15T06:12:18.962Z,99.90
2019-05-15T06:17:42.318Z,99.30
2019-05-15T06:23:08.364Z,99.90
2019-05-15T06:28:31.185Z,99.50
2019-05-15T06:33:55.116Z,98.80
2019-05-15T06:39:18.061Z,96.90
2019-05-15T06:44:41.329Z,97.20
2019-05-15T06:50:05.189Z,96.30
2019-05-15T06:55:28.881Z,94.20
2019-05-15T07:00:52.620Z,93.10
2019-05-15T07:06:17.966Z,91.30
2019-05-15T07:11:40.789Z,91.90
2019-05-15T07:17:04.582Z,87.60
2019-05-15T07:22:28.886Z,85.50
2019-05-15T07:27:52.658Z,86.30
2019-05-15T07:33:20.259Z,89.70
2019-05-15T07:38:41.083Z,85.20
2019-05-15T07:44:05.071Z,80.00
2019-05-15T07:49:28.898Z,82.60
2019-05-15T07:54:52.628Z,78.20
2019-05-15T08:00:18.795Z,79.60
2019-05-15T08:05:55.175Z,82.00
2019-05-15T08:11:17.513Z,79.00
2019-05-15T08:16:31.081Z,75.80
2019-05-15T08:21:54.216Z,79.70
2019-05-15T08:27:19.114Z,74.50
2019-05-15T08:32:42.374Z,72.50
2019-05-15T08:38:05.867Z,76.90
2019-05-15T08:43:31.418Z,75.40
2019-05-15T08:48:55.471Z,77.00
2019-05-15T08:54:18.826Z,68.60
2019-05-15T08:59:42.006Z,72.70
2019-05-15T09:05:08.522Z,70.30
2019-05-15T09:10:31.163Z,70.60
2019-05-15T09:15:54.583Z,70.80
2019-05-15T09:21:19.166Z,70.10
2019-05-15T09:26:45.371Z,72.80
2019-05-15T09:32:12.439Z,72.60
2019-05-15T09:37:34.204Z,72.00
2019-05-15T09:42:57.890Z,72.00
2019-05-15T09:48:22.211Z,72.40
2019-05-15T09:53:48.353Z,67.50
2019-05-15T09:59:11.454Z,72.00
2019-05-15T10:04:34.800Z,72.80
2019-05-15T10:09:57.805Z,70.70
2019-05-15T10:15:21.819Z,68.80
2019-05-15T10:20:45.283Z,71.20
2019-05-15T10:26:13.817Z,69.10
2019-05-15T10:31:34.638Z,69.90
2019-05-15T10:36:59.018Z,70.30
2019-05-15T10:42:23.051Z,71.10
2019-05-15T10:47:49.373Z,65.10
2019-05-15T10:53:11.418Z,66.10
2019-05-15T10:58:34.590Z,69.30
2019-05-15T11:03:59.019Z,67.20
2019-05-15T11:09:22.667Z,67.90
2019-05-15T11:14:46.507Z,71.00
2019-05-15T11:20:10.457Z,65.50
2019-05-15T11:25:34.407Z,67.30
2019-05-15T11:30:59.449Z,68.60
2019-05-15T11:36:23.507Z,67.60
2019-05-15T11:41:49.226Z,69.70
2019-05-15T11:47:12.087Z,65.50
2019-05-15T11:52:37.370Z,62.80
2019-05-15T11:58:00.674Z,63.10
2019-05-15T12:03:25.043Z,67.40
2019-05-15T12:08:49.043Z,68.60
2019-05-15T12:14:12.502Z,64.10
2019-05-15T12:19:35.830Z,66.30
2019-05-15T12:25:00.458Z,63.10
2019-05-15T12:30:25.336Z,63.30
2019-05-15T13:02:54.428Z,61.40
2019-05-15T13:08:19.457Z,64.60
2019-05-15T13:13:43.085Z,62.90
2019-05-15T13:19:07.311Z,64.00
2019-05-15T13:24:30.627Z,63.30
2019-05-15T13:29:54.331Z,62.60
2019-05-15T13:35:18.345Z,66.10
2019-05-15T13:40:42.681Z,64.40
2019-05-15T13:46:08.858Z,63.70
2019-05-15T13:51:31.772Z,61.90
2019-05-15T13:56:55.543Z,63.10
2019-05-15T14:02:19.503Z,65.30
2019-05-15T14:07:49.733Z,62.60
2019-05-15T14:13:07.707Z,63.70
2019-05-15T14:18:31.495Z,63.10
2019-05-15T14:23:55.490Z,64.00
2019-05-15T14:29:19.071Z,64.20
2019-05-15T14:34:42.648Z,64.20
2019-05-15T14:40:08.735Z,64.40
2019-05-15T14:45:33.175Z,65.20
2019-05-15T14:50:58.398Z,64.30
2019-05-15T14:56:21.139Z,65.60
2019-05-15T15:01:45.131Z,64.70
2019-05-15T15:07:08.843Z,64.80
2019-05-15T15:12:32.636Z,67.20
2019-05-15T15:17:58.329Z,67.80
2019-05-15T15:23:21.311Z,66.60
2019-05-15T15:28:44.607Z,68.70
2019-05-15T15:34:08.750Z,70.80
2019-05-15T15:39:32.893Z,70.30
2019-05-15T15:44:58.086Z,69.90
2019-05-15T15:50:21.790Z,68.70
2019-05-15T15:55:45.251Z,70.70
2019-05-15T16:01:09.176Z,68.70
2019-05-15T16:06:33.278Z,70.20
2019-05-15T16:11:58.381Z,70.80
2019-05-15T16:17:22.683Z,71.90
2019-05-15T16:22:48.614Z,70.60
2019-05-15T16:28:11.423Z,71.40
2019-05-15T16:33:35.432Z,74.20
2019-05-15T16:39:07.785Z,72.10
2019-05-15T16:44:24.529Z,74.20
2019-05-15T16:49:48.563Z,75.80
2019-05-15T16:55:12.463Z,76.50
2019-05-15T17:00:35.711Z,79.10
2019-05-15T17:05:59.781Z,78.20
2019-05-15T17:11:23.986Z,77.40
2019-05-15T17:16:48.106Z,77.70
2019-05-15T17:22:12.286Z,76.60
2019-05-15T17:27:35.511Z,75.80
2019-05-15T17:32:59.463Z,80.20
2019-05-15T17:38:22.938Z,79.40
2019-05-15T17:43:48.562Z,79.30
2019-05-15T17:49:15.478Z,77.50
2019-05-15T17:54:38.038Z,79.70
2019-05-15T18:00:02.147Z,80.10
2019-05-15T18:05:28.044Z,80.80
2019-05-15T18:10:50.656Z,80.40
2019-05-15T18:16:14.704Z,81.30
2019-05-15T18:21:38.607Z,80.40
2019-05-15T18:27:02.004Z,81.10
2019-05-15T18:43:11.712Z,82.90
2019-05-15T18:48:35.103Z,82.50
2019-05-15T18:59:25.591Z,82.90
2019-05-15T19:04:52.655Z,83.70
2019-05-15T19:10:27.964Z,83.40
2019-05-15T19:16:00.923Z,84.50
2019-05-15T19:21:27.678Z,84.80
2019-05-15T19:26:50.736Z,84.80
2019-05-15T19:32:14.792Z,84.40
2019-05-15T19:37:38.775Z,84.60
2019-05-15T19:43:04.037Z,85.40
2019-05-15T19:48:27.347Z,84.70
2019-05-15T19:53:51.087Z,86.10
2019-05-15T19:59:14.591Z,85.30
2019-05-15T20:04:38.572Z,85.70
2019-05-15T20:10:02.877Z,85.60
2019-05-15T20:15:28.562Z,85.90
2019-05-15T20:20:51.660Z,86.70
2019-05-15T20:26:17.827Z,86.20
2019-05-15T20:31:40.488Z,86.90
2019-05-15T20:37:04.357Z,86.40
2019-05-15T20:42:28.592Z,86.90
2019-05-15T20:47:51.962Z,88.60
2019-05-15T20:53:18.102Z,88.50
2019-05-15T20:58:41.106Z,87.50
2019-05-15T21:04:18.894Z,87.70
2019-05-15T21:09:31.653Z,88.10
2019-05-15T21:14:55.277Z,89.40
2019-05-15T21:20:18.762Z,88.90
2019-05-15T21:25:43.243Z,90.00
2019-05-15T21:31:08.769Z,89.20
2019-05-15T21:36:32.134Z,90.50
2019-05-15T21:41:58.167Z,90.20
2019-05-15T21:47:21.236Z,90.40
2019-05-15T21:52:44.797Z,91.00
2019-05-15T21:58:08.775Z,92.10
2019-05-15T22:03:32.815Z,91.80
2019-05-15T22:08:58.382Z,91.90
2019-05-15T22:14:22.599Z,93.20
2019-05-15T22:19:48.952Z,93.10
2019-05-15T22:25:11.595Z,93.50
2019-05-15T22:30:35.581Z,94.40
2019-05-15T22:35:59.931Z,94.70
2019-05-15T22:41:28.477Z,94.90
2019-05-15T22:46:51.876Z,94.50
2019-05-15T22:52:15.806Z,94.00
2019-05-15T22:57:39.904Z,94.40
2019-05-15T23:03:03.969Z,93.90
2019-05-15T23:08:29.045Z,93.90
2019-05-15T23:13:53.492Z,93.60
2019-05-15T23:19:18.681Z,95.10
2019-05-15T23:24:41.751Z,95.60
2019-05-15T23:30:08.703Z,95.60
2019-05-15T23:35:37.456Z,95.60
2019-05-15T23:40:58.745Z,95.60
2019-05-15T23:46:21.111Z,94.40
2019-05-15T23:51:44.751Z,94.40
2019-05-15T23:57:09.074Z,94.40
